Time;durP1;ratioP1;P1;durP2;ratioP2;P2;SDS_P1;SDS_P2;PMS_P1;PMS_P2;Temp;Humidity;BMP_temperature;BMP_pressure;BME280_temperature;BME280_humidity;BME280_pressure;Samples;Min_cycle;Max_cycle;Signal;HPM_P1;HPM_P2
2023/11/09 00:01:17;;;;;;;;;;;;;;;26.06;42.24;93912.56;4981594;28;8758;-60
2023/11/09 00:04:33;;;;;;;;;;;;;;;26.07;42.91;93910.56;4965444;28;7311;-59
2023/11/09 00:07:38;;;;;;;;;;;;;;;26.07;42.84;93905.06;4970758;28;7029;-60
2023/11/09 00:10:10;;;;;;;;;;;;;;;26.04;42.11;93897.81;4950330;28;7315;-59
2023/11/09 00:12:51;;;;;;;;;;;;;;;26.05;42.23;93893.81;4979409;28;8985;-60
2023/11/09 00:19:00;;;;;;;;;;;;;;;25.99;42.70;93884.91;4927976;29;7829;-59
2023/11/09 00:21:42;;;;;;;;;;;;;;;25.99;42.08;93885.63;4914436;29;7160;-60
2023/11/09 00:24:36;;;;;;;;;;;;;;;25.99;42.14;93871.13;4912151;29;7052;-59
2023/11/09 00:27:39;;;;;;;;;;;;;;;25.97;42.28;93859.84;4918541;29;8756;-59
2023/11/09 00:30:11;;;;;;;;;;;;;;;25.97;42.05;93859.84;4982712;28;7675;-60
2023/11/09 00:33:19;;;;;;;;;;;;;;;26.00;42.60;93856.81;4978725;28;7264;-59
2023/11/09 00:35:59;;;;;;;;;;;;;;;25.98;41.92;93844.81;4974278;28;7895;-59
2023/11/09 00:38:57;;;;;;;;;;;;;;;25.94;42.21;93847.91;4965799;28;7450;-59
2023/11/09 00:41:48;;;;;;;;;;;;;;;25.95;42.09;93841.09;4918327;29;7322;-59
2023/11/09 00:44:23;;;;;;;;;;;;;;;25.94;42.33;93850.66;4930188;29;7527;-59
2023/11/09 00:46:49;;;;;;;;;;;;;;;25.96;42.06;93848.09;4932683;29;7200;-59
2023/11/09 00:49:16;;;;;;;;;;;;;;;25.95;42.67;93851.38;4923172;29;7000;-59
2023/11/09 00:51:45;;;;;;;;;;;;;;;25.92;42.49;93842.16;4913211;29;6993;-59
2023/11/09 00:54:11;;;;;;;;;;;;;;;25.97;42.43;93848.81;4915014;29;7333;-59
2023/11/09 00:56:45;;;;;;;;;;;;;;;25.97;42.34;93849.56;4944864;28;8894;-59
2023/11/09 00:59:26;;;;;;;;;;;;;;;25.93;41.97;93838.13;4958843;28;10373;-59
2023/11/09 01:02:04;;;;;;;;;;;;;;;25.92;42.25;93842.16;4963517;28;7370;-59
2023/11/09 01:04:37;;;;;;;;;;;;;;;25.92;42.64;93852.44;4935217;28;7084;-59
2023/11/09 01:07:36;;;;;;;;;;;;;;;25.90;42.74;93844.69;4961509;28;7282;-59
2023/11/09 01:10:04;;;;;;;;;;;;;;;25.83;42.03;93839.06;4932705;29;7238;-59
2023/11/09 01:12:51;;;;;;;;;;;;;;;25.85;41.91;93828.25;4926787;29;7248;-59
2023/11/09 01:15:44;;;;;;;;;;;;;;;25.83;42.70;93828.78;4916426;29;7549;-59
2023/11/09 01:18:26;;;;;;;;;;;;;;;25.82;41.97;93821.78;4964544;28;8635;-59
2023/11/09 01:21:17;;;;;;;;;;;;;;;25.74;42.27;93823.66;4976518;28;7030;-59
2023/11/09 01:23:53;;;;;;;;;;;;;;;25.72;42.29;93815.19;4974977;28;7263;-59
2023/11/09 01:26:23;;;;;;;;;;;;;;;25.74;42.12;93812.66;4972217;28;7441;-59
2023/11/09 01:28:58;;;;;;;;;;;;;;;25.72;42.30;93811.69;4990059;28;7124;-59
2023/11/09 01:31:34;;;;;;;;;;;;;;;25.69;42.80;93807.97;4969635;28;7162;-59
2023/11/09 01:34:31;;;;;;;;;;;;;;;25.66;42.98;93814.53;4979184;28;7281;-59
2023/11/09 01:37:35;;;;;;;;;;;;;;;25.64;43.04;93813.56;4955915;28;7364;-59
2023/11/09 01:40:03;;;;;;;;;;;;;;;25.62;42.44;93808.56;4925901;29;8215;-59
2023/11/09 01:42:30;;;;;;;;;;;;;;;25.57;42.54;93794.91;4936523;28;7298;-60
2023/11/09 01:44:56;;;;;;;;;;;;;;;25.54;43.04;93791.19;4949360;28;7377;-60
2023/11/09 01:47:25;;;;;;;;;;;;;;;25.57;42.57;93789.41;4962198;28;9383;-60
2023/11/09 01:50:09;;;;;;;;;;;;;;;25.56;42.46;93794.16;4959540;28;9092;-60
2023/11/09 01:52:48;;;;;;;;;;;;;;;25.54;42.83;93780.16;4969339;28;7212;-60
2023/11/09 01:55:34;;;;;;;;;;;;;;;25.54;43.43;93787.69;4950477;28;7272;-60
2023/11/09 01:58:14;;;;;;;;;;;;;;;25.54;42.58;93782.16;4966164;28;7156;-60
2023/11/09 02:01:00;;;;;;;;;;;;;;;25.54;42.57;93791.19;4963890;28;7267;-60
2023/11/09 02:03:45;;;;;;;;;;;;;;;25.52;42.33;93777.19;4955967;28;9065;-60
2023/11/09 02:06:21;;;;;;;;;;;;;;;25.52;43.18;93776.44;4956522;28;6957;-60
2023/11/09 02:08:58;;;;;;;;;;;;;;;25.50;42.92;93768.72;4958621;28;7286;-60
2023/11/09 02:11:25;;;;;;;;;;;;;;;25.47;42.99;93761.50;4974731;28;9476;-60
2023/11/09 02:13:51;;;;;;;;;;;;;;;25.49;43.06;93756.22;5026651;28;8854;-60
2023/11/09 02:16:17;;;;;;;;;;;;;;;25.49;42.80;93761.72;5031471;28;7278;-61
2023/11/09 02:18:49;;;;;;;;;;;;;;;25.45;43.34;93739.25;5038425;28;9045;-60
2023/11/09 02:21:44;;;;;;;;;;;;;;;25.47;42.78;93742.22;5036768;28;7332;-60
2023/11/09 02:24:22;;;;;;;;;;;;;;;25.46;42.54;93738.00;5044417;28;7296;-60
2023/11/09 02:27:07;;;;;;;;;;;;;;;25.45;43.30;93738.53;5030646;28;7005;-60
2023/11/09 02:29:44;;;;;;;;;;;;;;;25.47;43.33;93725.00;5032155;28;7325;-60
2023/11/09 02:32:20;;;;;;;;;;;;;;;25.44;43.15;93715.75;5019664;28;8936;-60
2023/11/09 02:34:49;;;;;;;;;;;;;;;25.44;42.58;93713.00;5030273;28;8990;-60
2023/11/09 02:37:21;;;;;;;;;;;;;;;25.46;42.50;93706.97;5044976;28;7041;-61
2023/11/09 02:40:25;;;;;;;;;;;;;;;25.45;42.50;93703.47;5032843;28;7685;-60
2023/11/09 02:42:53;;;;;;;;;;;;;;;25.43;42.73;93701.25;5033935;28;7088;-60
2023/11/09 02:45:38;;;;;;;;;;;;;;;25.45;42.43;93694.50;5027689;28;7294;-60
2023/11/09 02:48:14;;;;;;;;;;;;;;;25.45;43.22;93694.50;5040411;28;7020;-60
2023/11/09 02:50:42;;;;;;;;;;;;;;;25.43;42.38;93695.00;5049321;28;7258;-60
2023/11/09 02:53:09;;;;;;;;;;;;;;;25.42;42.85;93688.03;5029236;28;7424;-60
2023/11/09 02:55:38;;;;;;;;;;;;;;;25.42;43.30;93690.78;5049224;28;7249;-60
2023/11/09 02:58:08;;;;;;;;;;;;;;;25.42;42.34;93688.03;5045266;28;7248;-60
2023/11/09 03:00:35;;;;;;;;;;;;;;;25.38;43.41;93695.81;5033556;28;8735;-60
2023/11/09 03:03:01;;;;;;;;;;;;;;;25.38;43.34;93682.78;5046064;28;7007;-60
2023/11/09 03:05:28;;;;;;;;;;;;;;;25.39;43.22;93689.03;5026553;28;7216;-60
2023/11/09 03:07:54;;;;;;;;;;;;;;;25.36;42.73;93684.56;5032749;28;7854;-60
2023/11/09 03:10:21;;;;;;;;;;;;;;;25.37;43.19;93683.31;5036370;28;7159;-60
2023/11/09 03:12:50;;;;;;;;;;;;;;;25.36;43.16;93688.06;5035603;28;7270;-60
2023/11/09 03:15:35;;;;;;;;;;;;;;;25.40;43.29;93688.50;5038859;28;7395;-60
2023/11/09 03:18:22;;;;;;;;;;;;;;;25.40;42.53;93685.75;5051378;28;7093;-60
2023/11/09 03:21:04;;;;;;;;;;;;;;;25.39;42.75;93680.78;5024933;28;7499;-60
2023/11/09 03:23:30;;;;;;;;;;;;;;;25.39;43.13;93676.00;5028154;28;7641;-60
2023/11/09 03:26:16;;;;;;;;;;;;;;;25.39;42.20;93681.53;5036268;28;9048;-60
2023/11/09 03:28:47;;;;;;;;;;;;;;;25.40;43.12;93671.25;5043277;28;9325;-60
2023/11/09 03:31:13;;;;;;;;;;;;;;;25.40;42.32;93671.25;5026483;28;6960;-61
2023/11/09 03:33:51;;;;;;;;;;;;;;;25.39;42.73;93676.00;5044228;28;7504;-60
2023/11/09 03:36:55;;;;;;;;;;;;;;;25.39;43.28;93676.00;5033547;28;7127;-60
2023/11/09 03:39:34;;;;;;;;;;;;;;;25.39;42.59;93669.75;4988453;28;9364;-60
2023/11/09 03:42:02;;;;;;;;;;;;;;;25.39;43.14;93664.25;4982312;28;7318;-60
2023/11/09 03:45:03;;;;;;;;;;;;;;;25.37;42.91;93667.53;5002631;28;7259;-60
2023/11/09 03:47:28;;;;;;;;;;;;;;;25.35;42.95;93647.31;4986399;28;8459;-60
2023/11/09 03:49:54;;;;;;;;;;;;;;;25.34;43.24;93646.56;5008354;28;7202;-60
2023/11/09 03:52:27;;;;;;;;;;;;;;;25.37;42.61;93642.78;5009880;28;7150;-60
2023/11/09 03:54:57;;;;;;;;;;;;;;;25.37;42.68;93640.00;4998176;28;7320;-60
2023/11/09 03:57:27;;;;;;;;;;;;;;;25.34;42.50;93629.31;4987680;28;8745;-60
2023/11/09 04:00:26;;;;;;;;;;;;;;;25.37;42.70;93636.50;5000744;28;7443;-60
2023/11/09 04:03:18;;;;;;;;;;;;;;;25.37;42.25;93634.50;4985272;28;7251;-60
2023/11/09 04:05:46;;;;;;;;;;;;;;;25.37;42.58;93636.50;5013318;28;7332;-60
2023/11/09 04:08:21;;;;;;;;;;;;;;;25.35;42.50;93631.53;4988293;28;9056;-60
2023/11/09 04:10:48;;;;;;;;;;;;;;;25.37;42.76;93634.50;5002149;28;7062;-60
2023/11/09 04:13:14;;;;;;;;;;;;;;;25.36;42.64;93627.50;5010302;28;8199;-60
2023/11/09 04:15:45;;;;;;;;;;;;;;;25.35;42.54;93630.78;5036965;28;7443;-60
2023/11/09 04:18:11;;;;;;;;;;;;;;;25.33;42.66;93620.31;5049084;28;7957;-60
2023/11/09 04:20:39;;;;;;;;;;;;;;;25.35;43.15;93614.28;5050158;28;7202;-60
2023/11/09 04:23:07;;;;;;;;;;;;;;;25.36;42.86;93624.00;5040600;28;8833;-61
2023/11/09 04:26:04;;;;;;;;;;;;;;;25.38;42.18;93627.72;5014496;28;7248;-60
2023/11/09 04:28:50;;;;;;;;;;;;;;;25.34;41.99;93618.28;4943150;28;9024;-60
2023/11/09 04:31:47;;;;;;;;;;;;;;;25.37;43.00;93629.00;4963298;28;7135;-60
2023/11/09 04:34:34;;;;;;;;;;;;;;;25.32;42.46;93626.34;4905825;29;9429;-61
2023/11/09 04:37:31;;;;;;;;;;;;;;;25.33;43.23;93625.06;4892716;29;7463;-60
2023/11/09 04:40:21;;;;;;;;;;;;;;;25.33;42.78;93630.59;4903494;29;6979;-60
2023/11/09 04:42:49;;;;;;;;;;;;;;;25.32;42.58;93631.84;4904781;29;7067;-60
2023/11/09 04:45:31;;;;;;;;;;;;;;;25.31;42.45;93636.63;4914255;29;7312;-60
2023/11/09 04:48:55;;;;;;;;;;;;;;;25.34;43.04;93630.03;4898611;29;7233;-60
2023/11/09 04:51:51;;;;;;;;;;;;;;;25.35;42.68;93628.03;4833137;29;7291;-60
2023/11/09 04:54:45;;;;;;;;;;;;;;;25.33;42.15;93625.06;4767828;30;8410;-61
2023/11/09 05:09:12;;;;;;;;;;;;;;;25.43;42.23;93607.66;4820777;29;7290;-60
2023/11/09 05:11:38;;;;;;;;;;;;;;;25.50;42.63;93603.53;4819928;29;7221;-57
2023/11/09 05:14:05;;;;;;;;;;;;;;;25.55;42.22;93599.19;4824673;29;8678;-57
2023/11/09 05:16:38;;;;;;;;;;;;;;;25.55;41.56;93597.19;4821631;29;9667;-57
2023/11/09 05:19:23;;;;;;;;;;;;;;;25.59;41.64;93602.34;4841531;29;7254;-57
2023/11/09 05:22:03;;;;;;;;;;;;;;;25.62;41.88;93606.81;4824479;29;8758;-57
2023/11/09 05:24:45;;;;;;;;;;;;;;;25.64;41.62;93601.50;4826655;29;9485;-57
2023/11/09 05:27:20;;;;;;;;;;;;;;;25.63;41.43;93600.03;4841872;28;7160;-57
2023/11/09 05:30:02;;;;;;;;;;;;;;;25.56;41.62;93595.13;4951170;28;7872;-57
2023/11/09 05:32:35;;;;;;;;;;;;;;;25.53;42.00;93594.22;5040956;28;9366;-57
2023/11/09 05:35:10;;;;;;;;;;;;;;;25.52;41.64;93589.97;5026650;28;7315;-57
2023/11/09 05:37:38;;;;;;;;;;;;;;;25.51;41.65;93591.25;5039042;28;6996;-57
2023/11/09 05:40:20;;;;;;;;;;;;;;;25.53;41.70;93594.22;5035335;28;7320;-57
2023/11/09 05:42:47;;;;;;;;;;;;;;;25.52;42.03;93592.72;5040815;28;8188;-57
2023/11/09 05:45:14;;;;;;;;;;;;;;;25.59;42.17;93605.84;5033338;28;9374;-57
2023/11/09 05:47:49;;;;;;;;;;;;;;;25.62;42.54;93604.78;5045915;28;7254;-57
2023/11/09 05:50:19;;;;;;;;;;;;;;;25.65;42.19;93609.25;5044553;28;7556;-57
2023/11/09 05:52:47;;;;;;;;;;;;;;;25.67;41.70;93603.19;5031920;28;9123;-57
2023/11/09 05:55:13;;;;;;;;;;;;;;;25.64;41.93;93607.78;5025267;28;8770;-57
2023/11/09 05:57:41;;;;;;;;;;;;;;;25.70;42.13;93610.41;5039014;28;7301;-57
2023/11/09 06:00:08;;;;;;;;;;;;;;;25.69;41.81;93608.91;5018864;28;9070;-57
2023/11/09 06:02:34;;;;;;;;;;;;;;;25.67;41.72;93612.19;5030716;28;9193;-57
2023/11/09 06:05:03;;;;;;;;;;;;;;;25.69;41.84;93614.41;5032071;28;7391;-57
2023/11/09 06:07:30;;;;;;;;;;;;;;;25.65;41.84;93620.25;5037997;28;7320;-57
2023/11/09 06:09:58;;;;;;;;;;;;;;;25.59;42.31;93629.88;5038768;28;7120;-57
2023/11/09 06:12:24;;;;;;;;;;;;;;;25.61;42.39;93628.09;5032679;28;9057;-57
2023/11/09 06:14:54;;;;;;;;;;;;;;;25.64;41.39;93635.31;5053352;28;7213;-57
2023/11/09 06:17:21;;;;;;;;;;;;;;;25.66;41.21;93643.78;5040080;28;8120;-57
2023/11/09 06:19:50;;;;;;;;;;;;;;;25.69;41.92;93631.69;5029911;28;7273;-57
2023/11/09 06:22:18;;;;;;;;;;;;;;;25.68;41.87;93632.22;5038723;28;8950;-55
2023/11/09 06:24:46;;;;;;;;;;;;;;;25.67;41.68;93634.25;5032425;28;8430;-55
2023/11/09 06:27:16;;;;;;;;;;;;;;;25.64;41.48;93634.56;5047546;28;7312;-55
2023/11/09 06:29:41;;;;;;;;;;;;;;;25.64;41.14;93643.56;5030685;28;8984;-55
2023/11/09 06:32:08;;;;;;;;;;;;;;;25.67;41.40;93647.25;5036835;28;9127;-55
2023/11/09 06:34:35;;;;;;;;;;;;;;;25.67;41.51;93653.50;5020205;28;7257;-55
2023/11/09 06:37:07;;;;;;;;;;;;;;;25.67;41.46;93655.53;5044659;28;7354;-55
2023/11/09 06:39:37;;;;;;;;;;;;;;;25.69;41.28;93656.47;5032879;28;9096;-55
2023/11/09 06:42:11;;;;;;;;;;;;;;;25.70;41.82;93655.22;5033330;28;7223;-55
2023/11/09 06:44:38;;;;;;;;;;;;;;;25.67;41.79;93653.50;5028066;28;9134;-54
2023/11/09 06:47:04;;;;;;;;;;;;;;;25.65;41.12;93653.31;5036200;28;7214;-55
2023/11/09 06:49:32;;;;;;;;;;;;;;;25.66;41.43;93660.31;5016372;28;8745;-55
2023/11/09 06:51:59;;;;;;;;;;;;;;;25.71;41.49;93655.97;5044564;28;8772;-55
2023/11/09 06:54:28;;;;;;;;;;;;;;;25.69;41.13;93658.47;5051846;28;7354;-55
2023/11/09 06:56:54;;;;;;;;;;;;;;;25.68;41.29;93657.78;5035831;28;7251;-55
2023/11/09 06:59:22;;;;;;;;;;;;;;;25.72;41.86;93663.69;5036175;28;7474;-55
2023/11/09 07:01:50;;;;;;;;;;;;;;;25.74;41.47;93665.91;5022470;28;9107;-55
2023/11/09 07:04:19;;;;;;;;;;;;;;;25.75;41.51;93667.41;5034144;28;9153;-55
2023/11/09 07:06:47;;;;;;;;;;;;;;;25.72;41.47;93671.97;5021477;28;7356;-54
2023/11/09 07:09:19;;;;;;;;;;;;;;;25.68;41.37;93674.28;5047781;28;7337;-55
2023/11/09 07:11:48;;;;;;;;;;;;;;;25.68;41.22;93673.53;5036500;28;6997;-55
2023/11/09 07:14:18;;;;;;;;;;;;;;;25.62;41.92;93676.38;5036662;28;7212;-55
2023/11/09 07:16:48;;;;;;;;;;;;;;;25.58;41.58;93675.25;5045761;28;7244;-54
2023/11/09 07:19:35;;;;;;;;;;;;;;;25.56;41.77;93669.50;5018314;28;7402;-55
2023/11/09 07:22:24;;;;;;;;;;;;;;;25.53;41.35;93679.56;5017549;28;7262;-55
2023/11/09 07:25:31;;;;;;;;;;;;;;;25.55;42.08;93676.28;5036085;28;8724;-55
2023/11/09 07:28:14;;;;;;;;;;;;;;;25.55;42.17;93685.28;5027359;28;7343;-55
2023/11/09 07:30:51;;;;;;;;;;;;;;;25.54;41.43;93689.31;5033054;28;7191;-55
2023/11/09 07:33:19;;;;;;;;;;;;;;;25.48;42.24;93680.41;5031085;28;6998;-57
2023/11/09 07:35:59;;;;;;;;;;;;;;;25.50;42.30;93683.38;5031459;28;7222;-57
2023/11/09 07:38:27;;;;;;;;;;;;;;;25.48;41.46;93687.91;5034806;28;9057;-57
2023/11/09 07:41:14;;;;;;;;;;;;;;;25.51;42.27;93693.13;5034299;28;7252;-57
2023/11/09 07:43:49;;;;;;;;;;;;;;;25.52;42.34;93691.84;5033858;28;8860;-57
2023/11/09 07:46:17;;;;;;;;;;;;;;;25.48;42.30;93693.41;5044447;28;7690;-57
2023/11/09 07:48:45;;;;;;;;;;;;;;;25.46;41.67;93695.97;5042880;28;7147;-57
2023/11/09 07:51:14;;;;;;;;;;;;;;;25.46;41.90;93693.94;5050065;28;7187;-57
2023/11/09 07:53:51;;;;;;;;;;;;;;;25.46;42.41;93695.97;5031358;28;9429;-57
2023/11/09 07:56:19;;;;;;;;;;;;;;;25.51;42.00;93692.38;5027123;28;7225;-57
2023/11/09 07:58:57;;;;;;;;;;;;;;;25.49;41.67;93690.13;5029340;28;7794;-57
2023/11/09 08:01:39;;;;;;;;;;;;;;;25.48;41.90;93702.44;5038677;28;7202;-57
2023/11/09 08:04:55;;;;;;;;;;;;;;;25.51;42.46;93695.88;5035868;28;7372;-57
2023/11/09 08:07:42;;;;;;;;;;;;;;;25.54;41.83;93694.06;4959686;28;9460;-57
2023/11/09 08:10:19;;;;;;;;;;;;;;;25.51;42.35;93698.63;4958542;28;7130;-57
2023/11/09 08:12:58;;;;;;;;;;;;;;;25.58;42.33;93692.47;4954861;28;8333;-57
2023/11/09 08:15:25;;;;;;;;;;;;;;;25.63;42.33;93699.91;4964496;28;7256;-57
2023/11/09 08:17:51;;;;;;;;;;;;;;;25.61;41.57;93707.22;4958670;28;7413;-57
2023/11/09 08:20:17;;;;;;;;;;;;;;;25.56;41.89;93700.53;4971495;28;7234;-57
2023/11/09 08:22:44;;;;;;;;;;;;;;;25.54;41.80;93702.31;4969279;28;9072;-57
2023/11/09 08:25:19;;;;;;;;;;;;;;;25.55;41.94;93710.06;4963512;28;9543;-57
2023/11/09 08:27:54;;;;;;;;;;;;;;;25.55;42.19;93710.06;4961204;28;7054;-57
2023/11/09 08:30:26;;;;;;;;;;;;;;;25.56;42.39;93711.53;4956712;28;8831;-56
2023/11/09 08:33:26;;;;;;;;;;;;;;;25.55;42.32;93712.81;4968132;28;7242;-57
2023/11/09 08:36:13;;;;;;;;;;;;;;;25.57;42.04;93718.53;4967604;28;7191;-57
2023/11/09 08:38:39;;;;;;;;;;;;;;;25.59;41.95;93723.53;4944805;28;7467;-57
2023/11/09 08:41:06;;;;;;;;;;;;;;;25.57;42.40;93729.56;4969929;28;9059;-57
2023/11/09 08:43:33;;;;;;;;;;;;;;;25.59;42.00;93720.75;4985368;28;7301;-49
2023/11/09 08:46:02;;;;;;;;;;;;;;;25.51;42.75;93719.91;5037591;28;9115;-50
2023/11/09 08:49:03;;;;;;;;;;;;;;;25.51;42.18;93726.16;5038631;28;7228;-50
2023/11/09 08:51:29;;;;;;;;;;;;;;;25.52;42.14;93722.13;5028165;28;7267;-52
2023/11/09 08:53:56;;;;;;;;;;;;;;;25.54;42.42;93714.09;5027273;28;7506;-51
2023/11/09 08:56:24;;;;;;;;;;;;;;;25.55;42.23;93704.56;5035498;28;7608;-50
2023/11/09 08:58:50;;;;;;;;;;;;;;;25.58;41.80;93703.50;5034516;28;8839;-52
2023/11/09 09:01:18;;;;;;;;;;;;;;;25.58;41.98;93700.03;5028247;28;9214;-50
2023/11/09 09:03:45;;;;;;;;;;;;;;;25.55;41.87;93690.78;5038960;28;9184;-49
2023/11/09 09:06:13;;;;;;;;;;;;;;;25.58;41.84;93680.75;5007860;28;6991;-50
2023/11/09 09:08:49;;;;;;;;;;;;;;;25.60;42.23;93681.69;5035601;28;8864;-52
2023/11/09 09:11:26;;;;;;;;;;;;;;;25.56;42.25;93680.50;5024293;28;7222;-52
2023/11/09 09:14:24;;;;;;;;;;;;;;;25.54;42.31;93675.53;5018525;28;6925;-50
2023/11/09 09:17:16;;;;;;;;;;;;;;;25.61;42.67;93663.16;4988765;28;8221;-52
2023/11/09 09:20:20;;;;;;;;;;;;;;;25.59;41.83;93652.66;4992716;28;7017;-47
2023/11/09 09:22:57;;;;;;;;;;;;;;;25.59;42.27;93666.44;4936311;29;7332;-52
2023/11/09 09:25:33;;;;;;;;;;;;;;;25.63;42.21;93655.09;4924047;29;8712;-52
2023/11/09 09:28:13;;;;;;;;;;;;;;;25.62;42.41;93659.84;4905747;28;7312;-50
2023/11/09 09:31:13;;;;;;;;;;;;;;;25.66;41.88;93643.03;4945759;28;7888;-49
2023/11/09 09:33:39;;;;;;;;;;;;;;;25.65;42.11;93650.56;4882692;29;6990;-48
2023/11/09 09:36:07;;;;;;;;;;;;;;;25.67;42.13;93661.78;4889783;29;7795;-50
2023/11/09 09:38:42;;;;;;;;;;;;;;;25.71;42.23;93661.47;4894518;29;7115;-49
2023/11/09 09:41:10;;;;;;;;;;;;;;;25.73;42.05;93654.16;4881135;29;6991;-51
2023/11/09 09:43:57;;;;;;;;;;;;;;;25.68;42.20;93646.75;4880690;29;8621;-49
2023/11/09 09:46:26;;;;;;;;;;;;;;;25.70;42.50;93648.97;4885036;29;7197;-51
2023/11/09 09:49:30;;;;;;;;;;;;;;;25.70;42.04;93624.19;4892064;29;8788;-50
2023/11/09 09:52:07;;;;;;;;;;;;;;;25.74;42.34;93627.34;4808767;29;7135;-61
2023/11/09 09:55:18;;;;;;;;;;;;;;;25.73;41.76;93636.91;4828189;29;7265;-61
2023/11/09 10:01:49;;;;;;;;;;;;;;;25.73;42.22;93648.63;4881380;29;7253;-61
2023/11/09 10:04:52;;;;;;;;;;;;;;;25.71;42.43;93645.69;4893153;29;7248;-61
2023/11/09 10:07:35;;;;;;;;;;;;;;;25.73;41.97;93632.13;4846501;29;7201;-61
2023/11/09 10:10:30;;;;;;;;;;;;;;;25.73;42.64;93634.88;4918728;28;6997;-61
2023/11/09 10:13:14;;;;;;;;;;;;;;;25.73;41.97;93634.16;4931055;29;9068;-61
2023/11/09 10:15:44;;;;;;;;;;;;;;;25.72;41.97;93636.16;4935564;29;7350;-61
2023/11/09 10:18:51;;;;;;;;;;;;;;;25.72;42.72;93647.16;4932892;29;8194;-61
2023/11/09 10:21:19;;;;;;;;;;;;;;;25.71;42.33;93650.47;4915155;29;7160;-61
2023/11/09 10:24:23;;;;;;;;;;;;;;;25.75;42.66;93651.59;4970018;28;7164;-61
2023/11/09 10:27:18;;;;;;;;;;;;;;;25.75;41.90;93656.41;4901289;29;7355;-61
2023/11/09 10:30:20;;;;;;;;;;;;;;;25.74;42.30;93654.91;4916911;29;9103;-61
2023/11/09 10:33:17;;;;;;;;;;;;;;;25.74;42.73;93652.88;4901413;29;7402;-61
2023/11/09 10:36:04;;;;;;;;;;;;;;;25.73;41.94;93643.13;4916662;29;8766;-61
2023/11/09 10:38:44;;;;;;;;;;;;;;;25.72;42.86;93647.16;4916681;29;7628;-61
2023/11/09 10:41:26;;;;;;;;;;;;;;;25.68;42.09;93654.25;4925336;29;8937;-61
2023/11/09 10:43:59;;;;;;;;;;;;;;;25.70;42.72;93659.97;4926916;28;7102;-61
2023/11/09 10:46:41;;;;;;;;;;;;;;;25.70;41.96;93657.97;4935960;28;9462;-61
2023/11/09 10:49:23;;;;;;;;;;;;;;;25.70;42.94;93659.97;4934316;29;8025;-61
2023/11/09 10:51:55;;;;;;;;;;;;;;;25.69;42.63;93664.75;4932560;29;8407;-61
2023/11/09 10:54:39;;;;;;;;;;;;;;;25.74;42.74;93663.91;4936356;29;9120;-61
2023/11/09 10:57:08;;;;;;;;;;;;;;;25.76;42.32;93652.34;4935572;29;7184;-61
2023/11/09 10:59:40;;;;;;;;;;;;;;;25.76;42.58;93666.88;4930648;29;7543;-61
2023/11/09 11:02:28;;;;;;;;;;;;;;;25.73;41.87;93654.16;4993277;28;7157;-59
2023/11/09 11:05:08;;;;;;;;;;;;;;;25.69;42.63;93631.69;4987496;28;7233;-59
2023/11/09 11:07:59;;;;;;;;;;;;;;;25.72;42.43;93638.91;5026684;28;7145;-59
2023/11/09 11:11:24;;;;;;;;;;;;;;;25.73;42.05;93648.63;5039545;28;8789;-61
2023/11/09 11:14:05;;;;;;;;;;;;;;;25.71;42.72;93640.16;5049566;28;7007;-62
2023/11/09 11:16:51;;;;;;;;;;;;;;;25.71;42.41;93629.16;5052736;28;7269;-61
2023/11/09 11:19:27;;;;;;;;;;;;;;;25.74;42.87;93633.59;5053850;28;7272;-61
2023/11/09 11:21:57;;;;;;;;;;;;;;;25.71;41.82;93626.41;5043688;28;8862;-61
2023/11/09 11:24:56;;;;;;;;;;;;;;;25.72;42.54;93613.38;5035911;28;7189;-61
2023/11/09 11:27:39;;;;;;;;;;;;;;;25.74;42.36;93608.06;5040529;28;6996;-61
2023/11/09 11:30:27;;;;;;;;;;;;;;;25.72;41.99;93619.63;5034234;28;7280;-61
2023/11/09 11:33:30;;;;;;;;;;;;;;;25.72;42.14;93608.59;5048276;28;7253;-61
2023/11/09 11:36:03;;;;;;;;;;;;;;;25.68;42.63;93605.44;5023034;28;7478;-61
2023/11/09 11:39:24;;;;;;;;;;;;;;;25.69;42.41;93601.41;5021333;28;7389;-60
2023/11/09 11:42:16;;;;;;;;;;;;;;;25.71;43.08;93600.88;5042027;28;7246;-61
2023/11/09 11:45:03;;;;;;;;;;;;;;;25.74;43.24;93594.31;5038880;28;7482;-61
2023/11/09 11:47:30;;;;;;;;;;;;;;;25.72;42.87;93589.34;5032286;28;7260;-60
2023/11/09 11:50:16;;;;;;;;;;;;;;;25.77;42.74;93587.75;5050447;28;7061;-61
2023/11/09 11:52:48;;;;;;;;;;;;;;;25.74;42.93;93586.03;5038984;28;7434;-60
2023/11/09 11:55:18;;;;;;;;;;;;;;;25.76;42.35;93573.22;5050312;28;8698;-61
2023/11/09 11:58:07;;;;;;;;;;;;;;;25.78;42.82;93575.44;5056690;28;9140;-61
2023/11/09 12:00:50;;;;;;;;;;;;;;;25.79;42.38;93583.19;5036241;28;7022;-61
2023/11/09 12:03:52;;;;;;;;;;;;;;;25.78;42.30;93576.19;5038089;28;7436;-61
2023/11/09 12:07:05;;;;;;;;;;;;;;;25.76;42.14;93564.97;5003755;28;7230;-61
2023/11/09 12:10:05;;;;;;;;;;;;;;;25.79;42.54;93558.41;4929709;29;7298;-61
2023/11/09 12:12:34;;;;;;;;;;;;;;;25.79;42.79;93552.13;4911798;29;7230;-61
2023/11/09 12:15:06;;;;;;;;;;;;;;;25.85;42.23;93547.25;4910319;29;9015;-61
2023/11/09 12:17:33;;;;;;;;;;;;;;;25.86;42.40;93534.97;4907430;29;6946;-61
2023/11/09 12:20:10;;;;;;;;;;;;;;;25.83;42.22;93536.03;4908829;29;9179;-61
2023/11/09 12:23:18;;;;;;;;;;;;;;;25.87;42.99;93545.44;4911364;29;9865;-62
2023/11/09 12:26:19;;;;;;;;;;;;;;;25.87;43.12;93541.94;4913886;29;7424;-61
2023/11/09 12:29:17;;;;;;;;;;;;;;;25.87;42.35;93539.19;4899080;29;7058;-61
2023/11/09 12:31:51;;;;;;;;;;;;;;;25.88;42.22;93540.69;4913709;29;7048;-61
2023/11/09 12:34:56;;;;;;;;;;;;;;;25.90;43.01;93543.66;4898816;29;7266;-61
2023/11/09 12:37:36;;;;;;;;;;;;;;;25.88;42.80;93543.44;4914359;29;9653;-61
2023/11/09 12:40:04;;;;;;;;;;;;;;;25.89;42.24;93551.16;4898816;29;8797;-60
2023/11/09 12:42:34;;;;;;;;;;;;;;;25.91;42.74;93543.09;4880295;29;7265;-61
2023/11/09 12:45:10;;;;;;;;;;;;;;;25.87;42.06;93542.69;4893392;29;9155;-61
2023/11/09 12:47:41;;;;;;;;;;;;;;;25.87;42.27;93537.19;4930888;29;7218;-61
2023/11/09 12:50:16;;;;;;;;;;;;;;;25.85;40.91;93539.72;4988435;28;8781;-62
2023/11/09 12:52:43;;;;;;;;;;;;;;;25.87;41.43;93539.19;4981030;28;8899;-61
2023/11/09 12:55:13;;;;;;;;;;;;;;;25.89;40.90;93544.91;4984175;28;7025;-62
2023/11/09 12:57:51;;;;;;;;;;;;;;;25.91;40.23;93542.34;4971440;28;9177;-61
2023/11/09 13:00:29;;;;;;;;;;;;;;;25.91;40.72;93545.13;4986333;28;9328;-61
2023/11/09 13:03:29;;;;;;;;;;;;;;;25.88;40.23;93538.66;4966446;28;7231;-61
2023/11/09 13:06:25;;;;;;;;;;;;;;;25.89;40.41;93539.41;5045647;28;8741;-61
2023/11/09 13:09:32;;;;;;;;;;;;;;;25.86;39.62;93530.19;5042649;28;9035;-61
2023/11/09 13:11:46;;;;;;;;;;;;;;;25.88;39.75;93518.66;5044552;28;8810;-60
2023/11/09 13:14:22;;;;;;;;;;;;;;;25.86;39.86;93516.41;5047074;28;8837;-62
2023/11/09 13:16:48;;;;;;;;;;;;;;;25.87;40.13;93519.91;5046955;28;7210;-61
2023/11/09 13:19:26;;;;;;;;;;;;;;;25.86;40.31;93523.94;5043053;28;6981;-61
2023/11/09 13:21:52;;;;;;;;;;;;;;;25.84;40.21;93529.97;5033918;28;9106;-62
2023/11/09 13:24:33;;;;;;;;;;;;;;;25.81;40.17;93538.56;5032344;28;6971;-62
2023/11/09 13:27:06;;;;;;;;;;;;;;;25.80;39.86;93542.59;5053891;28;7250;-62
2023/11/09 13:30:02;;;;;;;;;;;;;;;25.81;40.32;93527.56;5047097;28;7033;-62
2023/11/09 13:32:38;;;;;;;;;;;;;;;25.79;40.56;93528.09;4985488;28;7518;-62
2023/11/09 13:35:32;;;;;;;;;;;;;;;25.77;39.66;93530.66;4988707;28;7182;-62
2023/11/09 13:38:12;;;;;;;;;;;;;;;25.83;40.71;93530.50;4993620;28;7271;-62
2023/11/09 13:40:43;;;;;;;;;;;;;;;25.82;40.24;93532.53;4983339;28;7263;-61
2023/11/09 13:43:28;;;;;;;;;;;;;;;25.82;40.36;93532.53;4987641;28;7256;-62
2023/11/09 13:46:14;;;;;;;;;;;;;;;25.77;40.49;93522.38;4986929;28;7241;-61
2023/11/09 13:48:43;;;;;;;;;;;;;;;25.79;40.49;93519.84;4990604;28;7191;-62
2023/11/09 13:51:27;;;;;;;;;;;;;;;25.82;41.03;93524.25;4972554;28;7272;-62
2023/11/09 13:54:23;;;;;;;;;;;;;;;25.80;40.35;93517.78;4968657;28;7326;-62
2023/11/09 13:57:19;;;;;;;;;;;;;;;25.83;40.26;93530.50;5007230;28;9071;-62
2023/11/09 13:59:59;;;;;;;;;;;;;;;25.80;40.88;93532.31;4970181;28;8729;-61
2023/11/09 14:02:33;;;;;;;;;;;;;;;25.79;40.38;93530.09;4967886;28;7199;-62
2023/11/09 14:05:44;;;;;;;;;;;;;;;25.78;40.26;93523.84;4984213;28;8798;-62
2023/11/09 14:08:21;;;;;;;;;;;;;;;25.80;40.77;93526.81;4944284;28;8778;-62
2023/11/09 14:11:01;;;;;;;;;;;;;;;25.77;40.97;93516.13;4964584;28;7321;-62
2023/11/09 14:13:28;;;;;;;;;;;;;;;25.80;40.57;93526.81;4990819;28;7352;-62
2023/11/09 14:16:19;;;;;;;;;;;;;;;25.77;40.66;93519.63;4993737;28;7231;-62
2023/11/09 14:19:20;;;;;;;;;;;;;;;25.78;40.58;93503.81;4987055;28;8812;-62